createdAt,value
2023-05-13T00:02:10.431Z,96782.06
2023-05-13T00:05:08.005Z,96786.88
2023-05-13T00:08:07.358Z,96783.38
2023-05-13T00:11:04.468Z,96780.03
2023-05-13T00:14:01.344Z,96784.28
2023-05-13T00:16:59.472Z,96784.22
2023-05-13T00:19:56.535Z,96773.75
2023-05-13T00:22:53.392Z,96779.44
2023-05-13T00:25:50.316Z,96775.97
2023-05-13T00:28:47.183Z,96775.44
2023-05-13T00:31:44.071Z,96776.41
2023-05-13T00:34:40.979Z,96779.84
2023-05-13T00:37:38.957Z,96782.41
2023-05-13T00:40:39.762Z,96776.41
2023-05-13T00:43:36.564Z,96772.00
2023-05-13T00:46:34.380Z,96783.75
2023-05-13T00:49:33.762Z,96770.84
2023-05-13T00:52:30.709Z,96778.25
2023-05-13T00:55:27.536Z,96771.00
2023-05-13T00:58:24.492Z,96777.22
2023-05-13T01:02:31.116Z,96783.97
2023-05-13T01:06:01.808Z,96777.16
2023-05-13T01:09:26.078Z,96773.13
2023-05-13T01:12:44.588Z,96778.91
2023-05-13T01:15:49.992Z,96793.22
2023-05-13T01:18:57.049Z,96784.78
2023-05-13T01:21:55.049Z,96788.31
2023-05-13T01:24:51.991Z,96782.19
2023-05-13T01:27:49.221Z,96790.16
2023-05-13T01:30:48.081Z,96785.88
2023-05-13T01:33:45.570Z,96783.75
2023-05-13T01:36:43.173Z,96785.13
2023-05-13T01:39:40.808Z,96776.69
2023-05-13T01:42:37.661Z,96774.44
2023-05-13T01:45:34.872Z,96785.44
2023-05-13T01:48:31.690Z,96786.41
2023-05-13T01:51:28.562Z,96783.94
2023-05-13T01:54:25.885Z,96780.88
2023-05-13T01:57:22.735Z,96776.88
2023-05-13T02:00:20.082Z,96777.66
2023-05-13T02:03:17.215Z,96779.44
2023-05-13T02:06:14.055Z,96777.50
2023-05-13T02:09:10.898Z,96779.44
2023-05-13T02:12:08.863Z,96787.34
2023-05-13T02:15:06.461Z,96783.16
2023-05-13T02:18:03.337Z,96782.84
2023-05-13T02:21:00.148Z,96790.69
2023-05-13T02:23:56.965Z,96785.69
2023-05-13T02:26:54.430Z,96784.97
2023-05-13T02:29:51.276Z,96786.66
2023-05-13T02:32:48.127Z,96785.78
2023-05-13T02:35:44.964Z,96779.03
2023-05-13T02:38:41.831Z,96777.41
2023-05-13T02:41:38.646Z,96778.59
2023-05-13T02:44:35.502Z,96773.16
2023-05-13T02:47:32.419Z,96772.53
2023-05-13T02:50:29.231Z,96766.59
2023-05-13T02:53:26.206Z,96764.53
2023-05-13T02:56:23.092Z,96762.78
2023-05-13T02:59:19.912Z,96772.88
2023-05-13T03:02:17.078Z,96771.16
2023-05-13T03:05:14.012Z,96764.72
2023-05-13T03:08:10.824Z,96775.25
2023-05-13T03:11:07.790Z,96766.59
2023-05-13T03:14:04.619Z,96760.69
2023-05-13T03:17:01.545Z,96761.75
2023-05-13T03:19:58.376Z,96754.97
2023-05-13T03:22:55.189Z,96761.44
2023-05-13T03:25:52.012Z,96764.28
2023-05-13T03:28:48.944Z,96767.88
2023-05-13T03:31:46.150Z,96768.28
2023-05-13T03:34:43.114Z,96764.81
2023-05-13T03:37:40.001Z,96776.28
2023-05-13T03:40:36.913Z,96769.88
2023-05-13T03:43:33.974Z,96770.66
2023-05-13T03:46:30.890Z,96778.38
2023-05-13T03:49:27.751Z,96778.09
2023-05-13T03:52:24.570Z,96778.97
2023-05-13T03:55:21.528Z,96776.94
2023-05-13T03:58:19.153Z,96782.88
2023-05-13T04:01:15.992Z,96773.31
2023-05-13T04:04:12.804Z,96783.38
2023-05-13T04:07:09.810Z,96783.41
2023-05-13T04:10:07.775Z,96779.41
2023-05-13T04:13:04.600Z,96787.84
2023-05-13T04:16:01.577Z,96786.19
2023-05-13T04:18:58.427Z,96795.00
2023-05-13T04:21:55.261Z,96796.25
2023-05-13T04:24:56.444Z,96781.84
2023-05-13T04:27:53.481Z,96788.09
2023-05-13T04:30:50.407Z,96790.09
2023-05-13T04:33:47.573Z,96782.56
2023-05-13T04:36:46.416Z,96787.31
2023-05-13T04:39:46.528Z,96792.31
2023-05-13T04:42:43.613Z,96792.66
2023-05-13T04:45:40.898Z,96794.97
2023-05-13T04:48:37.759Z,96791.09
2023-05-13T04:51:34.776Z,96798.34
2023-05-13T04:54:32.274Z,96794.03
2023-05-13T04:57:29.356Z,96789.78
2023-05-13T05:00:26.400Z,96792.69
2023-05-13T05:03:24.110Z,96792.78
2023-05-13T05:06:21.841Z,96795.56
2023-05-13T05:09:19.007Z,96797.06
2023-05-13T05:12:15.824Z,96789.94
2023-05-13T05:15:15.933Z,96780.44
2023-05-13T05:18:14.119Z,96784.69
2023-05-13T05:21:11.390Z,96787.22
2023-05-13T05:24:08.420Z,96782.13
2023-05-13T05:27:06.135Z,96781.59
2023-05-13T05:30:03.584Z,96777.53
2023-05-13T05:33:01.218Z,96784.19
2023-05-13T05:35:58.348Z,96777.31
2023-05-13T05:38:55.542Z,96778.50
2023-05-13T05:41:53.256Z,96778.56
2023-05-13T05:44:50.200Z,96772.81
2023-05-13T05:47:47.117Z,96778.16
2023-05-13T05:50:44.102Z,96772.00
2023-05-13T05:53:42.191Z,96762.09
2023-05-13T05:56:39.026Z,96759.75
2023-05-13T05:59:35.952Z,96755.63
2023-05-13T06:02:32.883Z,96773.22
2023-05-13T06:05:29.878Z,96768.16
2023-05-13T06:08:30.250Z,96766.59
2023-05-13T06:11:27.282Z,96763.59
2023-05-13T06:14:24.201Z,96769.75
2023-05-13T06:17:21.094Z,96764.19
2023-05-13T06:20:18.168Z,96777.63
2023-05-13T06:23:15.125Z,96768.44
2023-05-13T06:26:11.960Z,96773.13
2023-05-13T06:29:08.840Z,96776.78
2023-05-13T06:32:06.259Z,96775.28
2023-05-13T06:35:03.208Z,96779.88
2023-05-13T06:38:00.133Z,96772.78
2023-05-13T06:40:57.174Z,96784.56
2023-05-13T06:43:54.012Z,96780.88
2023-05-13T06:46:51.001Z,96791.13
2023-05-13T06:49:47.897Z,96783.78
2023-05-13T06:52:44.895Z,96783.03
2023-05-13T06:55:42.574Z,96787.84
2023-05-13T06:58:39.515Z,96779.56
2023-05-13T07:01:36.609Z,96772.16
2023-05-13T07:04:33.562Z,96776.72
2023-05-13T07:07:30.406Z,96766.69
2023-05-13T07:10:27.267Z,96761.91
2023-05-13T07:13:24.451Z,96769.22
2023-05-13T07:16:21.324Z,96759.25
2023-05-13T07:19:18.233Z,96766.97
2023-05-13T07:22:15.098Z,96759.19
2023-05-13T07:25:12.507Z,96760.53
2023-05-13T07:28:09.489Z,96751.31
2023-05-13T07:31:06.580Z,96752.66
2023-05-13T07:34:04.036Z,96751.66
2023-05-13T07:37:00.865Z,96747.72
2023-05-13T07:39:58.164Z,96754.66
2023-05-13T07:42:54.972Z,96741.06
2023-05-13T07:45:51.919Z,96740.66
2023-05-13T07:48:48.797Z,96744.03
2023-05-13T07:51:45.680Z,96742.34
2023-05-13T07:54:42.523Z,96739.75
2023-05-13T07:57:39.426Z,96742.97
2023-05-13T08:00:36.876Z,96747.44
2023-05-13T08:03:33.789Z,96743.09
2023-05-13T08:06:32.733Z,96742.78
2023-05-13T08:09:29.828Z,96747.34
2023-05-13T08:12:26.698Z,96744.97
2023-05-13T08:15:25.486Z,96738.63
2023-05-13T08:18:22.630Z,96740.22
2023-05-13T08:21:19.554Z,96733.91
2023-05-13T08:24:16.367Z,96732.59
2023-05-13T08:27:13.189Z,96729.56
2023-05-13T08:30:10.336Z,96738.06
2023-05-13T08:33:07.839Z,96726.00
2023-05-13T08:36:05.125Z,96723.25
2023-05-13T08:39:01.934Z,96724.81
2023-05-13T08:42:00.031Z,96721.00
2023-05-13T08:44:57.412Z,96733.16
2023-05-13T08:48:02.183Z,96729.72
2023-05-13T08:51:01.034Z,96720.47
2023-05-13T08:53:58.928Z,96726.31
2023-05-13T08:56:55.948Z,96740.59
2023-05-13T08:59:52.750Z,96730.63
2023-05-13T09:02:52.859Z,96733.59
2023-05-13T09:05:50.800Z,96734.28
2023-05-13T09:08:47.918Z,96731.13
2023-05-13T09:11:48.554Z,96722.47
2023-05-13T09:14:45.284Z,96718.28
2023-05-13T09:17:54.230Z,96728.66
2023-05-13T09:20:51.196Z,96714.66
2023-05-13T09:23:48.010Z,96729.72
2023-05-13T09:26:45.743Z,96724.47
2023-05-13T09:29:42.585Z,96731.88
2023-05-13T09:32:40.582Z,96720.47
2023-05-13T09:35:40.917Z,96723.06
2023-05-13T09:38:39.138Z,96717.00
2023-05-13T09:41:36.674Z,96713.38
2023-05-13T09:44:34.195Z,96708.28
2023-05-13T09:47:31.024Z,96701.03
2023-05-13T09:50:28.162Z,96696.47
2023-05-13T09:53:26.420Z,96715.19
2023-05-13T09:56:26.132Z,96716.41
2023-05-13T09:59:22.952Z,96697.81
2023-05-13T10:02:19.954Z,96700.28
2023-05-13T10:05:17.137Z,96707.44
2023-05-13T10:08:15.582Z,96718.56
2023-05-13T10:11:15.722Z,96724.63
2023-05-13T10:14:13.208Z,96718.28
2023-05-13T10:17:10.674Z,96727.97
2023-05-13T10:20:07.979Z,96716.00
2023-05-13T10:23:05.348Z,96707.38
2023-05-13T10:26:05.708Z,96702.50
2023-05-13T10:29:03.535Z,96719.06
2023-05-13T10:32:01.979Z,96707.13
2023-05-13T10:35:13.592Z,96715.81
2023-05-13T10:39:00.944Z,96694.75
2023-05-13T10:42:42.629Z,96692.69
2023-05-13T10:45:39.646Z,96686.91
2023-05-13T10:48:47.277Z,96676.41
2023-05-13T10:51:49.263Z,96690.03
2023-05-13T10:55:02.472Z,96679.28
2023-05-13T10:58:14.622Z,96680.16
2023-05-13T11:01:35.531Z,96683.84
2023-05-13T11:04:32.417Z,96693.94
2023-05-13T11:07:29.757Z,96688.44
2023-05-13T11:10:30.595Z,96694.16
2023-05-13T11:13:37.560Z,96690.16
2023-05-13T11:16:35.307Z,96695.56
2023-05-13T11:19:38.156Z,96691.81
2023-05-13T11:22:36.893Z,96688.88
2023-05-13T11:25:34.025Z,96685.75
2023-05-13T11:28:57.687Z,96686.28
2023-05-13T11:31:58.497Z,96668.69
2023-05-13T11:34:57.315Z,96670.31
2023-05-13T11:37:57.598Z,96666.19
2023-05-13T11:40:57.858Z,96672.88
2023-05-13T11:43:55.864Z,96677.53
2023-05-13T11:47:08.298Z,96678.47
2023-05-13T11:50:22.009Z,96674.09
2023-05-13T11:53:22.897Z,96682.50
2023-05-13T11:56:19.835Z,96680.03
2023-05-13T11:59:16.683Z,96686.34
2023-05-13T12:02:13.644Z,96682.72
2023-05-13T12:05:11.801Z,96690.41
2023-05-13T12:08:11.374Z,96685.50
2023-05-13T12:11:12.980Z,96692.34
2023-05-13T12:14:09.945Z,96706.72
2023-05-13T12:17:06.931Z,96718.25
2023-05-13T12:20:07.048Z,96724.22
2023-05-13T12:23:05.195Z,96725.75
2023-05-13T12:26:07.959Z,96735.47
2023-05-13T12:29:06.779Z,96741.63
2023-05-13T12:32:06.114Z,96742.16
2023-05-13T12:35:03.635Z,96742.44
2023-05-13T12:38:04.858Z,96740.84
2023-05-13T12:41:14.910Z,96744.34
2023-05-13T12:44:14.968Z,96747.41
2023-05-13T12:47:13.132Z,96740.63
2023-05-13T12:50:10.992Z,96754.94
2023-05-13T12:53:08.000Z,96747.09
2023-05-13T12:56:05.390Z,96743.13
2023-05-13T12:59:02.430Z,96746.88
2023-05-13T13:01:59.317Z,96745.34
2023-05-13T13:04:56.465Z,96744.97
2023-05-13T13:07:53.334Z,96740.66
2023-05-13T13:10:50.368Z,96744.72
2023-05-13T13:13:48.595Z,96752.94
2023-05-13T13:16:45.534Z,96749.34
2023-05-13T13:19:42.367Z,96755.56
2023-05-13T13:22:39.233Z,96752.63
2023-05-13T13:25:36.400Z,96750.00
2023-05-13T13:28:33.240Z,96742.69
2023-05-13T13:31:30.109Z,96750.84
2023-05-13T13:34:26.912Z,96752.06
2023-05-13T13:37:23.735Z,96752.72
2023-05-13T13:40:21.062Z,96747.09
2023-05-13T13:43:18.300Z,96748.91
2023-05-13T13:46:15.158Z,96738.84
2023-05-13T13:49:22.562Z,96735.47
2023-05-13T13:52:22.335Z,96730.72
2023-05-13T13:55:23.364Z,96730.44
2023-05-13T13:58:20.170Z,96725.41
2023-05-13T14:01:17.095Z,96716.75
2023-05-13T14:04:20.287Z,96715.94
2023-05-13T14:07:17.286Z,96708.22
2023-05-13T14:10:14.264Z,96701.75
2023-05-13T14:13:11.100Z,96707.66
2023-05-13T14:16:08.080Z,96708.31
2023-05-13T14:19:05.057Z,96708.75
2023-05-13T14:22:01.944Z,96704.63
2023-05-13T14:24:59.221Z,96707.56
2023-05-13T14:27:56.055Z,96709.84
2023-05-13T14:30:52.875Z,96705.84
2023-05-13T14:33:49.958Z,96707.38
2023-05-13T14:36:46.976Z,96700.09
2023-05-13T14:39:43.933Z,96706.78
2023-05-13T14:42:40.853Z,96702.97
2023-05-13T14:45:37.705Z,96707.75
2023-05-13T14:48:34.892Z,96700.16
2023-05-13T14:51:31.805Z,96689.03
2023-05-13T14:54:28.763Z,96693.31
2023-05-13T14:57:25.602Z,96692.22
2023-05-13T15:00:22.776Z,96680.69
2023-05-13T15:03:19.748Z,96684.28
2023-05-13T15:06:16.653Z,96684.31
2023-05-13T15:09:13.504Z,96683.78
2023-05-13T15:12:10.884Z,96680.19
2023-05-13T15:15:08.555Z,96696.06
2023-05-13T15:18:06.411Z,96699.75
2023-05-13T15:21:03.383Z,96701.38
2023-05-13T15:24:00.464Z,96695.84
2023-05-13T15:26:57.305Z,96697.09
2023-05-13T15:29:54.908Z,96696.22
2023-05-13T15:32:51.865Z,96696.94
2023-05-13T15:35:48.927Z,96695.81
2023-05-13T15:38:45.840Z,96696.41
2023-05-13T15:41:43.329Z,96691.59
2023-05-13T15:44:40.236Z,96697.31
2023-05-13T15:47:37.661Z,96695.56
2023-05-13T15:50:34.806Z,96692.34
2023-05-13T15:53:31.689Z,96688.47
2023-05-13T15:56:28.635Z,96686.66
2023-05-13T15:59:25.522Z,96688.72
2023-05-13T16:02:22.398Z,96688.06
2023-05-13T16:05:19.355Z,96686.09
2023-05-13T16:08:16.396Z,96690.56
2023-05-13T16:11:13.448Z,96688.94
2023-05-13T16:14:10.305Z,96678.28
2023-05-13T16:17:07.504Z,96682.09
2023-05-13T16:20:05.032Z,96677.34
2023-05-13T16:23:01.917Z,96680.44
2023-05-13T16:25:58.754Z,96678.97
2023-05-13T16:28:55.580Z,96680.34
2023-05-13T16:31:52.565Z,96676.25
2023-05-13T16:34:49.936Z,96678.72
2023-05-13T16:37:46.905Z,96682.47
2023-05-13T16:40:44.148Z,96682.81
2023-05-13T16:43:41.103Z,96692.81
2023-05-13T16:46:38.034Z,96684.75
2023-05-13T16:49:38.730Z,96683.16
2023-05-13T16:52:35.581Z,96685.41
2023-05-13T16:55:32.442Z,96684.91
2023-05-13T16:58:29.299Z,96684.38
2023-05-13T17:01:26.189Z,96677.13
2023-05-13T17:04:23.374Z,96681.63
2023-05-13T17:07:20.251Z,96676.41
2023-05-13T17:10:17.071Z,96672.00
2023-05-13T17:13:13.903Z,96673.38
2023-05-13T17:16:11.194Z,96676.59
2023-05-13T17:19:09.487Z,96667.53
2023-05-13T17:22:06.408Z,96667.47
2023-05-13T17:25:04.280Z,96665.88
2023-05-13T17:28:01.183Z,96664.75
2023-05-13T17:30:58.071Z,96662.31
2023-05-13T17:33:54.959Z,96663.63
2023-05-13T17:36:51.784Z,96673.22
2023-05-13T17:39:49.630Z,96676.22
2023-05-13T17:42:46.458Z,96668.38
2023-05-13T17:45:45.339Z,96668.47
2023-05-13T17:48:42.727Z,96670.88
2023-05-13T17:51:39.736Z,96671.78
2023-05-13T17:54:37.057Z,96684.88
2023-05-13T17:57:33.921Z,96689.81
2023-05-13T18:00:30.930Z,96689.94
2023-05-13T18:03:27.878Z,96680.06
2023-05-13T18:06:24.747Z,96686.69
2023-05-13T18:09:21.585Z,96689.50
2023-05-13T18:12:18.430Z,96686.00
2023-05-13T18:15:15.418Z,96701.88
2023-05-13T18:18:13.375Z,96696.59
2023-05-13T18:21:10.725Z,96691.28
2023-05-13T18:24:07.828Z,96692.53
2023-05-13T18:27:07.043Z,96688.03
2023-05-13T18:30:04.337Z,96695.00
2023-05-13T18:33:01.472Z,96692.47
2023-05-13T18:35:58.413Z,96697.16
2023-05-13T18:38:55.424Z,96695.78
2023-05-13T18:41:52.362Z,96699.28
2023-05-13T18:44:49.289Z,96711.72
2023-05-13T18:47:46.233Z,96713.56
2023-05-13T18:50:43.110Z,96729.03
2023-05-13T18:53:40.073Z,96723.69
2023-05-13T18:56:37.570Z,96731.84
2023-05-13T18:59:34.510Z,96723.41
2023-05-13T19:02:31.881Z,96734.16
2023-05-13T19:05:28.996Z,96732.84
2023-05-13T19:08:25.862Z,96739.56
2023-05-13T19:11:22.722Z,96742.84
2023-05-13T19:14:19.548Z,96742.47
2023-05-13T19:17:16.679Z,96742.25
2023-05-13T19:20:13.657Z,96754.00
2023-05-13T19:23:10.608Z,96750.38
2023-05-13T19:26:07.640Z,96764.03
2023-05-13T19:29:04.908Z,96762.84
2023-05-13T19:32:01.802Z,96768.59
2023-05-13T19:34:58.718Z,96766.09
2023-05-13T19:37:56.383Z,96768.91
2023-05-13T19:40:54.653Z,96781.91
2023-05-13T19:43:51.487Z,96764.97
2023-05-13T19:46:48.399Z,96778.13
2023-05-13T19:49:45.365Z,96770.22
2023-05-13T19:52:43.638Z,96765.31
2023-05-13T19:55:41.278Z,96774.47
2023-05-13T19:58:38.105Z,96776.38
2023-05-13T20:01:35.227Z,96770.69
2023-05-13T20:04:32.080Z,96773.38
2023-05-13T20:07:28.933Z,96776.03
2023-05-13T20:10:25.817Z,96775.41
2023-05-13T20:13:22.809Z,96786.16
2023-05-13T20:16:22.450Z,96779.94
2023-05-13T20:19:22.061Z,96777.16
2023-05-13T20:22:19.442Z,96785.38
2023-05-13T20:25:17.084Z,96778.72
2023-05-13T20:28:13.911Z,96782.06
2023-05-13T20:31:10.800Z,96782.50
2023-05-13T20:34:07.741Z,96781.44
2023-05-13T20:37:05.742Z,96780.91
2023-05-13T20:40:02.626Z,96783.00
2023-05-13T20:43:01.378Z,96785.53
2023-05-13T20:45:58.285Z,96784.47
2023-05-13T20:48:55.350Z,96784.41
2023-05-13T20:51:52.323Z,96781.38
2023-05-13T20:54:49.190Z,96784.13
2023-05-13T20:57:46.361Z,96773.44
2023-05-13T21:00:43.247Z,96766.19
2023-05-13T21:03:40.235Z,96762.28
2023-05-13T21:06:37.180Z,96761.97
2023-05-13T21:09:34.244Z,96769.56
2023-05-13T21:12:31.142Z,96761.41
2023-05-13T21:15:28.499Z,96766.19
2023-05-13T21:18:25.786Z,96767.53
2023-05-13T21:21:22.686Z,96762.59
2023-05-13T21:24:19.886Z,96756.56
2023-05-13T21:27:16.758Z,96760.03
2023-05-13T21:30:14.050Z,96761.13
2023-05-13T21:33:12.492Z,96764.22
2023-05-13T21:36:09.431Z,96770.38
2023-05-13T21:39:10.489Z,96763.09
2023-05-13T21:42:07.406Z,96759.47
2023-05-13T21:45:04.611Z,96771.97
2023-05-13T21:48:01.591Z,96754.72
2023-05-13T21:50:58.446Z,96768.94
2023-05-13T21:53:55.349Z,96765.00
2023-05-13T21:56:52.258Z,96762.59
2023-05-13T21:59:49.133Z,96771.63
2023-05-13T22:02:46.477Z,96771.34
2023-05-13T22:05:44.236Z,96766.56
2023-05-13T22:08:41.258Z,96760.91
2023-05-13T22:11:38.318Z,96765.66
2023-05-13T22:14:35.316Z,96759.13
2023-05-13T22:17:32.399Z,96761.03
2023-05-13T22:20:29.389Z,96752.34
2023-05-13T22:23:26.904Z,96759.59
2023-05-13T22:26:23.770Z,96761.66
2023-05-13T22:29:21.320Z,96759.91
2023-05-13T22:32:18.242Z,96762.91
2023-05-13T22:35:15.093Z,96768.91
2023-05-13T22:38:12.010Z,96767.16
2023-05-13T22:41:09.201Z,96769.34
2023-05-13T22:44:06.101Z,96769.03
2023-05-13T22:47:03.057Z,96765.09
2023-05-13T22:49:59.899Z,96765.53
2023-05-13T22:52:56.780Z,96757.75
2023-05-13T22:55:53.904Z,96762.31
2023-05-13T22:58:50.954Z,96755.84
2023-05-13T23:01:48.057Z,96757.78
2023-05-13T23:04:45.043Z,96750.03
2023-05-13T23:07:41.941Z,96747.22
2023-05-13T23:10:38.825Z,96745.94
2023-05-13T23:13:35.688Z,96751.19
2023-05-13T23:16:32.977Z,96747.97
2023-05-13T23:19:30.217Z,96745.25
2023-05-13T23:22:27.227Z,96741.50
2023-05-13T23:25:24.432Z,96734.72
2023-05-13T23:28:21.585Z,96733.28
2023-05-13T23:31:18.586Z,96734.09
2023-05-13T23:34:15.552Z,96723.19
2023-05-13T23:37:12.443Z,96725.88
2023-05-13T23:40:09.810Z,96727.88
2023-05-13T23:43:06.621Z,96723.09
2023-05-13T23:46:03.601Z,96717.06
2023-05-13T23:49:00.432Z,96716.50
2023-05-13T23:51:57.256Z,96721.16
2023-05-13T23:54:54.114Z,96725.44
2023-05-13T23:57:50.957Z,96719.09
